createdAt,value
2022-11-04T00:01:02.511Z,14.15
2022-11-04T00:03:30.208Z,18.00
2022-11-04T00:06:01.542Z,24.02
2022-11-04T00:08:29.406Z,20.15
2022-11-04T00:11:33.409Z,16.58
2022-11-04T00:14:01.284Z,24.13
2022-11-04T00:16:47.606Z,27.15
2022-11-04T00:19:15.732Z,18.05
2022-11-04T00:22:02.382Z,15.23
2022-11-04T00:24:48.875Z,14.07
2022-11-04T00:27:37.174Z,12.13
2022-11-04T00:30:06.136Z,18.55
2022-11-04T00:32:52.137Z,17.15
2022-11-04T00:35:20.321Z,18.48
2022-11-04T00:37:47.820Z,18.98
2022-11-04T00:40:16.617Z,15.52
2022-11-04T00:42:45.932Z,17.80
2022-11-04T00:45:13.828Z,14.43
2022-11-04T00:47:41.639Z,15.85
2022-11-04T00:50:09.685Z,18.10
2022-11-04T00:52:37.463Z,21.30
2022-11-04T00:55:05.543Z,20.80
2022-11-04T00:57:33.478Z,23.20
2022-11-04T01:00:01.266Z,15.93
2022-11-04T01:02:29.190Z,17.70
2022-11-04T01:04:57.397Z,16.65
2022-11-04T01:07:25.421Z,18.02
2022-11-04T01:09:53.255Z,13.15
2022-11-04T01:12:20.774Z,14.60
2022-11-04T01:14:49.823Z,16.77
2022-11-04T01:17:17.778Z,17.20
2022-11-04T01:19:45.632Z,12.70
2022-11-04T01:22:13.415Z,21.38
2022-11-04T01:24:41.228Z,13.13
2022-11-04T01:27:09.092Z,20.48
2022-11-04T01:29:36.485Z,18.50
2022-11-04T01:32:04.006Z,14.90
2022-11-04T01:34:31.512Z,17.45
2022-11-04T01:36:59.555Z,17.38
2022-11-04T01:39:27.464Z,13.15
2022-11-04T01:41:55.306Z,12.90
2022-11-04T01:44:41.578Z,17.27
2022-11-04T01:47:17.269Z,14.15
2022-11-04T01:49:50.445Z,19.30
2022-11-04T01:52:21.649Z,15.15
2022-11-04T01:54:51.798Z,14.32
2022-11-04T01:57:25.953Z,18.83
2022-11-04T01:59:53.629Z,23.77
2022-11-04T02:02:24.476Z,19.38
2022-11-04T02:04:52.640Z,13.63
2022-11-04T02:07:20.382Z,16.70
2022-11-04T02:09:48.010Z,16.77
2022-11-04T02:12:34.452Z,17.05
2022-11-04T02:15:02.784Z,13.88
2022-11-04T02:17:37.716Z,18.92
2022-11-04T02:20:34.017Z,17.38
2022-11-04T02:23:32.336Z,15.68
2022-11-04T02:26:09.034Z,18.33
2022-11-04T02:28:51.412Z,16.92
2022-11-04T02:31:19.291Z,20.33
2022-11-04T02:33:47.851Z,19.33
2022-11-04T02:36:21.646Z,20.40
2022-11-04T02:38:52.677Z,14.05
2022-11-04T02:41:32.787Z,20.67
2022-11-04T02:44:07.059Z,20.27
2022-11-04T02:46:48.648Z,23.40
2022-11-04T02:49:39.620Z,17.90
2022-11-04T02:52:11.180Z,23.08
2022-11-04T02:54:44.764Z,15.30
2022-11-04T02:57:15.875Z,22.83
2022-11-04T03:00:07.785Z,18.35
2022-11-04T03:05:04.135Z,17.60
2022-11-04T03:07:34.337Z,10.70
2022-11-04T03:10:09.082Z,13.68
2022-11-04T03:12:42.518Z,12.63
2022-11-04T03:15:13.740Z,22.40
2022-11-04T03:17:47.041Z,18.27
2022-11-04T03:20:19.142Z,20.20
2022-11-04T03:22:46.708Z,15.07
2022-11-04T03:25:14.984Z,10.32
2022-11-04T03:27:45.648Z,14.07
2022-11-04T03:32:53.408Z,14.27
2022-11-04T03:35:21.327Z,15.40
2022-11-04T03:37:50.052Z,12.75
2022-11-04T03:40:19.127Z,18.58
2022-11-04T03:42:58.642Z,13.02
2022-11-04T03:45:27.197Z,13.90
2022-11-04T03:47:56.795Z,15.93
2022-11-04T03:50:29.478Z,13.50
2022-11-04T03:52:58.556Z,21.75
2022-11-04T03:55:45.552Z,17.75
2022-11-04T03:58:45.530Z,26.25
2022-11-04T04:01:38.481Z,17.65
2022-11-04T04:04:29.875Z,17.50
2022-11-04T04:07:18.116Z,26.55
2022-11-04T04:09:52.615Z,17.27
2022-11-04T04:12:47.122Z,19.40
2022-11-04T04:15:22.477Z,19.77
2022-11-04T04:17:56.472Z,15.07
2022-11-04T04:20:27.068Z,15.75
2022-11-04T04:23:32.351Z,17.40
2022-11-04T04:26:21.975Z,14.85
2022-11-04T04:28:51.257Z,26.38
2022-11-04T04:31:39.475Z,17.17
2022-11-04T04:34:07.418Z,12.77
2022-11-04T04:36:44.203Z,19.70
2022-11-04T04:39:31.828Z,16.45
2022-11-04T04:42:18.715Z,20.45
2022-11-04T04:45:04.804Z,22.65
2022-11-04T04:47:37.948Z,19.50
2022-11-04T04:50:06.293Z,17.23
2022-11-04T04:52:37.809Z,19.27
2022-11-04T04:55:06.286Z,18.67
2022-11-04T04:57:33.852Z,16.40
2022-11-04T05:00:01.793Z,13.85
2022-11-04T05:02:29.658Z,22.73
2022-11-04T05:04:59.309Z,22.17
2022-11-04T05:07:27.209Z,25.33
2022-11-04T05:09:55.269Z,26.15
2022-11-04T05:12:23.148Z,36.67
2022-11-04T05:14:50.628Z,25.15
2022-11-04T05:17:18.252Z,34.05
2022-11-04T05:19:45.806Z,31.05
2022-11-04T05:22:19.894Z,25.75
2022-11-04T05:24:47.733Z,30.58
2022-11-04T05:27:15.552Z,32.38
2022-11-04T05:29:43.357Z,33.63
2022-11-04T05:32:11.176Z,24.90
2022-11-04T05:34:38.610Z,27.45
2022-11-04T05:37:06.083Z,23.40
2022-11-04T05:39:33.651Z,17.75
2022-11-04T05:42:01.687Z,16.20
2022-11-04T05:44:29.469Z,19.77
2022-11-04T05:46:57.323Z,24.75
2022-11-04T05:49:25.156Z,25.52
2022-11-04T05:51:52.612Z,24.83
2022-11-04T05:54:20.529Z,26.13
2022-11-04T05:56:47.905Z,23.27
2022-11-04T05:59:15.816Z,28.25
2022-11-04T06:01:44.095Z,24.00
2022-11-04T06:04:16.605Z,21.95
2022-11-04T06:06:44.694Z,18.30
2022-11-04T06:09:12.468Z,19.20
2022-11-04T06:11:40.435Z,21.38
2022-11-04T06:14:08.052Z,22.80
2022-11-04T06:16:35.977Z,23.58
2022-11-04T06:19:07.788Z,27.67
2022-11-04T06:21:38.742Z,21.27
2022-11-04T06:24:06.194Z,25.35
2022-11-04T06:26:33.745Z,24.92
2022-11-04T06:29:01.681Z,27.17
2022-11-04T06:31:29.587Z,28.35
2022-11-04T06:33:57.413Z,30.55
2022-11-04T06:36:25.233Z,32.20
2022-11-04T06:38:52.701Z,26.52
2022-11-04T06:41:20.257Z,24.95
2022-11-04T06:43:47.808Z,28.13
2022-11-04T06:46:28.109Z,34.13
2022-11-04T06:48:57.010Z,24.65
2022-11-04T06:51:25.457Z,26.45
2022-11-04T06:53:53.312Z,26.75
2022-11-04T06:56:21.293Z,21.15
2022-11-04T06:58:53.074Z,27.90
2022-11-04T07:01:22.852Z,24.92
2022-11-04T07:03:51.616Z,24.38
2022-11-04T07:06:20.138Z,24.13
2022-11-04T07:08:48.894Z,20.88
2022-11-04T07:11:17.511Z,19.95
2022-11-04T07:13:45.536Z,21.85
2022-11-04T07:16:13.628Z,26.38
2022-11-04T07:18:41.516Z,26.65
2022-11-04T07:21:10.325Z,25.17
2022-11-04T07:23:38.457Z,27.55
2022-11-04T07:26:08.556Z,18.88
2022-11-04T07:28:36.913Z,21.75
2022-11-04T07:31:07.181Z,22.33
2022-11-04T07:33:35.356Z,26.80
2022-11-04T07:36:07.394Z,21.25
2022-11-04T07:38:35.276Z,21.40
2022-11-04T07:41:03.437Z,27.90
2022-11-04T07:43:31.517Z,22.98
2022-11-04T07:46:01.038Z,25.33
2022-11-04T07:48:28.725Z,24.90
2022-11-04T07:50:57.487Z,21.10
2022-11-04T07:53:25.303Z,26.08
2022-11-04T07:55:53.404Z,20.98
2022-11-04T07:58:21.631Z,20.08
2022-11-04T08:00:49.610Z,24.00
2022-11-04T08:03:17.906Z,16.35
2022-11-04T08:05:45.770Z,18.05
2022-11-04T08:08:39.189Z,20.30
2022-11-04T08:11:17.023Z,20.02
2022-11-04T08:13:46.566Z,18.10
2022-11-04T08:16:15.537Z,12.15
2022-11-04T08:18:44.142Z,23.92
2022-11-04T08:21:11.982Z,15.65
2022-11-04T08:23:39.973Z,23.42
2022-11-04T08:26:12.281Z,14.73
2022-11-04T08:28:40.274Z,24.98
2022-11-04T08:31:26.231Z,16.33
2022-11-04T08:33:55.004Z,17.38
2022-11-04T08:36:32.337Z,14.50
2022-11-04T08:39:03.284Z,12.35
2022-11-04T08:41:34.675Z,23.67
2022-11-04T08:44:04.234Z,13.75
2022-11-04T08:46:35.677Z,13.60
2022-11-04T08:49:09.486Z,12.82
2022-11-04T08:51:42.476Z,10.70
2022-11-04T08:54:10.429Z,9.77
2022-11-04T08:56:39.526Z,11.82
2022-11-04T08:59:08.310Z,10.27
2022-11-04T09:01:37.168Z,11.00
2022-11-04T09:04:05.793Z,10.20
2022-11-04T09:06:37.401Z,11.57
2022-11-04T09:11:37.562Z,10.10
2022-11-04T09:16:35.220Z,9.40
2022-11-04T09:19:03.132Z,8.65
2022-11-04T09:21:30.971Z,10.80
2022-11-04T09:23:58.756Z,11.35
2022-11-04T09:26:26.739Z,11.82
2022-11-04T09:28:56.208Z,7.78
2022-11-04T09:31:24.711Z,9.73
2022-11-04T09:33:53.745Z,9.18
2022-11-04T09:36:21.945Z,10.45
2022-11-04T09:38:49.811Z,11.63
2022-11-04T09:41:50.769Z,9.73
2022-11-04T09:44:26.096Z,11.77
2022-11-04T09:46:58.153Z,6.65
2022-11-04T09:49:30.004Z,11.52
2022-11-04T09:51:59.451Z,10.57
2022-11-04T09:54:47.317Z,10.23
2022-11-04T09:57:19.450Z,11.48
2022-11-04T09:59:48.098Z,8.15
2022-11-04T10:02:24.710Z,10.40
2022-11-04T10:05:20.759Z,10.77
2022-11-04T10:08:00.237Z,14.43
2022-11-04T10:10:51.258Z,8.88
2022-11-04T10:13:32.802Z,11.20
2022-11-04T10:16:10.949Z,7.53
2022-11-04T10:18:51.002Z,7.85
2022-11-04T10:21:18.517Z,9.77
2022-11-04T10:24:07.205Z,8.45
2022-11-04T10:27:00.643Z,7.75
2022-11-04T10:29:44.783Z,12.25
2022-11-04T10:32:30.951Z,10.85
2022-11-04T10:35:06.138Z,9.35
2022-11-04T10:37:34.873Z,5.90
2022-11-04T10:40:29.381Z,7.85
2022-11-04T10:43:00.565Z,10.98
2022-11-04T10:45:40.754Z,6.97
2022-11-04T10:48:22.581Z,11.00
2022-11-04T10:50:58.350Z,7.03
2022-11-04T10:53:28.558Z,8.90
2022-11-04T10:56:22.908Z,9.85
2022-11-04T10:58:53.509Z,13.45
2022-11-04T11:01:25.954Z,9.55
2022-11-04T11:03:54.484Z,11.77
2022-11-04T11:06:25.157Z,8.32
2022-11-04T11:08:56.873Z,8.68
2022-11-04T11:11:45.493Z,10.75
2022-11-04T11:14:27.887Z,9.90
2022-11-04T11:17:17.410Z,9.13
2022-11-04T11:20:07.986Z,11.73
2022-11-04T11:22:43.923Z,6.07
2022-11-04T11:25:31.963Z,9.57
2022-11-04T11:28:05.839Z,7.15
2022-11-04T11:30:53.950Z,6.72
2022-11-04T11:33:35.899Z,7.13
2022-11-04T11:36:04.662Z,7.13
2022-11-04T11:38:34.395Z,6.72
2022-11-04T11:41:28.716Z,7.28
2022-11-04T11:43:58.703Z,7.22
2022-11-04T11:46:30.233Z,9.40
2022-11-04T11:49:03.578Z,8.52
2022-11-04T11:51:37.691Z,8.70
2022-11-04T11:54:22.717Z,12.38
2022-11-04T12:03:21.261Z,8.07
2022-11-04T12:09:19.141Z,7.47
2022-11-04T12:12:23.629Z,4.82
2022-11-04T12:15:17.865Z,6.60
2022-11-04T12:18:12.486Z,8.55
2022-11-04T12:21:03.694Z,5.53
2022-11-04T12:24:01.248Z,8.32
2022-11-04T12:26:33.241Z,9.02
2022-11-04T12:29:27.642Z,7.70
2022-11-04T12:32:25.616Z,7.57
2022-11-04T12:35:10.187Z,5.70
2022-11-04T12:37:52.893Z,7.70
2022-11-04T12:40:35.993Z,8.05
2022-11-04T12:43:12.901Z,7.13
2022-11-04T12:45:49.502Z,6.57
2022-11-04T12:48:49.805Z,6.68
2022-11-04T12:51:58.519Z,5.20
2022-11-04T12:54:37.808Z,5.28
2022-11-04T12:57:36.326Z,6.07
2022-11-04T13:00:07.852Z,5.60
2022-11-04T13:02:39.850Z,9.02
2022-11-04T13:05:35.912Z,7.93
2022-11-04T13:08:29.107Z,7.32
2022-11-04T13:11:22.818Z,9.13
2022-11-04T13:14:21.324Z,7.45
2022-11-04T13:16:52.028Z,10.45
2022-11-04T13:19:37.558Z,7.68
2022-11-04T13:22:12.018Z,8.88
2022-11-04T13:24:47.477Z,7.45
2022-11-04T13:27:30.425Z,3.20
2022-11-04T13:30:30.196Z,4.47
2022-11-04T13:33:19.048Z,6.45
2022-11-04T13:35:55.251Z,5.47
2022-11-04T13:38:29.780Z,5.13
2022-11-04T13:41:28.300Z,4.45
2022-11-04T13:43:59.645Z,4.38
2022-11-04T13:46:37.626Z,8.77
2022-11-04T13:49:30.552Z,8.00
2022-11-04T13:52:16.712Z,8.25
2022-11-04T13:54:55.455Z,4.45
2022-11-04T13:57:26.409Z,6.97
2022-11-04T14:00:12.341Z,6.07
2022-11-04T14:02:44.420Z,8.20
2022-11-04T14:05:27.126Z,5.53
2022-11-04T14:08:00.598Z,6.75
2022-11-04T14:10:57.298Z,7.90
2022-11-04T14:13:30.813Z,5.10
2022-11-04T14:16:09.682Z,8.25
2022-11-04T14:18:39.612Z,9.95
2022-11-04T14:21:13.186Z,7.15
2022-11-04T14:24:16.298Z,24.48
2022-11-04T14:26:48.919Z,8.85
2022-11-04T14:29:28.170Z,5.07
2022-11-04T14:31:59.481Z,5.90
2022-11-04T14:34:39.769Z,6.85
2022-11-04T14:37:21.368Z,4.10
2022-11-04T14:39:57.055Z,9.75
2022-11-04T14:42:45.675Z,6.65
2022-11-04T14:45:21.795Z,4.47
2022-11-04T14:47:53.649Z,7.05
2022-11-04T14:50:25.180Z,9.57
2022-11-04T14:53:00.873Z,3.70
2022-11-04T14:55:30.442Z,7.97
2022-11-04T14:58:24.708Z,4.07
2022-11-04T15:00:55.801Z,8.02
2022-11-04T15:06:34.877Z,16.02
2022-11-04T15:09:26.563Z,5.47
2022-11-04T15:12:27.792Z,6.32
2022-11-04T15:14:56.192Z,4.90
2022-11-04T15:17:26.976Z,6.78
2022-11-04T15:19:57.653Z,5.93
2022-11-04T15:22:26.691Z,7.60
2022-11-04T15:24:54.416Z,8.10
2022-11-04T15:27:28.332Z,5.35
2022-11-04T15:29:57.424Z,8.80
2022-11-04T15:32:25.453Z,7.55
2022-11-04T15:34:54.391Z,9.65
2022-11-04T15:37:24.063Z,12.80
2022-11-04T15:39:53.576Z,8.57
2022-11-04T15:42:43.782Z,4.90
2022-11-04T15:45:37.960Z,9.68
2022-11-04T15:48:36.657Z,7.80
2022-11-04T15:51:19.748Z,7.20
2022-11-04T15:53:59.926Z,7.18
2022-11-04T15:56:34.640Z,7.57
2022-11-04T15:59:02.897Z,7.88
2022-11-04T16:01:32.806Z,6.07
2022-11-04T16:04:02.763Z,10.02
2022-11-04T16:06:34.828Z,10.88
2022-11-04T16:09:06.868Z,6.15
2022-11-04T16:11:34.779Z,10.70
2022-11-04T16:14:15.886Z,9.45
2022-11-04T16:16:47.298Z,10.00
2022-11-04T16:19:23.171Z,10.25
2022-11-04T16:21:59.542Z,15.32
2022-11-04T16:24:30.065Z,10.10
2022-11-04T16:26:58.244Z,10.27
2022-11-04T16:29:31.525Z,19.58
2022-11-04T16:32:05.372Z,12.07
2022-11-04T16:34:33.188Z,9.75
2022-11-04T16:37:01.038Z,9.50
2022-11-04T16:39:28.409Z,15.52
2022-11-04T16:41:57.323Z,11.45
2022-11-04T16:44:25.838Z,13.82
2022-11-04T16:46:53.660Z,16.88
2022-11-04T16:49:22.061Z,11.90
2022-11-04T16:52:13.576Z,7.90
2022-11-04T16:54:41.551Z,10.25
2022-11-04T16:57:11.935Z,14.25
2022-11-04T16:59:40.634Z,17.38
2022-11-04T17:02:31.790Z,16.40
2022-11-04T17:04:59.728Z,14.85
2022-11-04T17:07:47.401Z,21.30
2022-11-04T17:10:16.263Z,14.27
2022-11-04T17:12:44.129Z,14.38
2022-11-04T17:15:12.455Z,19.60
2022-11-04T17:17:40.816Z,9.68
2022-11-04T17:20:11.614Z,12.93
2022-11-04T17:22:39.528Z,19.47
2022-11-04T17:25:22.926Z,10.38
2022-11-04T17:27:50.778Z,11.65
2022-11-04T17:30:19.475Z,7.35
2022-11-04T17:32:47.526Z,7.35
2022-11-04T17:35:16.637Z,6.72
2022-11-04T17:37:44.921Z,6.65
2022-11-04T17:40:15.424Z,14.43
2022-11-04T17:43:05.618Z,6.97
2022-11-04T17:45:36.059Z,9.65
2022-11-04T17:48:05.044Z,8.25
2022-11-04T17:50:33.343Z,6.63
2022-11-04T17:53:01.134Z,7.93
2022-11-04T17:55:29.000Z,6.53
2022-11-04T17:57:57.196Z,6.72
2022-11-04T18:00:29.739Z,9.48
2022-11-04T18:02:57.793Z,10.40
2022-11-04T18:05:25.588Z,6.35
2022-11-04T18:07:55.083Z,9.25
2022-11-04T18:10:23.067Z,7.32
2022-11-04T18:12:50.935Z,4.65
2022-11-04T18:15:19.015Z,7.38
2022-11-04T18:17:46.718Z,4.90
2022-11-04T18:20:15.613Z,6.78
2022-11-04T18:22:43.685Z,10.98
2022-11-04T18:25:11.817Z,7.43
2022-11-04T18:27:39.766Z,9.18
2022-11-04T18:30:07.920Z,4.65
2022-11-04T18:32:35.716Z,7.45
2022-11-04T18:35:03.626Z,9.70
2022-11-04T18:37:31.815Z,5.82
2022-11-04T18:39:59.623Z,5.15
2022-11-04T18:42:27.492Z,7.40
2022-11-04T18:44:55.268Z,8.55
2022-11-04T18:47:26.790Z,7.55
2022-11-04T18:52:22.652Z,8.77
2022-11-04T18:54:51.283Z,9.35
2022-11-04T18:57:19.411Z,10.75
2022-11-04T18:59:47.614Z,7.97
2022-11-04T19:02:21.312Z,6.53
2022-11-04T19:04:50.221Z,7.32
2022-11-04T19:07:17.961Z,5.82
2022-11-04T19:09:47.369Z,9.02
2022-11-04T19:12:35.526Z,7.95
2022-11-04T19:15:04.560Z,6.75
2022-11-04T19:17:32.037Z,9.13
2022-11-04T19:19:59.598Z,8.20
2022-11-04T19:22:27.602Z,7.82
2022-11-04T19:24:55.420Z,9.45
2022-11-04T19:27:25.023Z,9.85
2022-11-04T19:29:53.244Z,9.93
2022-11-04T19:32:20.708Z,9.35
2022-11-04T19:34:48.564Z,6.03
2022-11-04T19:37:16.240Z,6.78
2022-11-04T19:39:44.135Z,8.68
2022-11-04T19:42:30.725Z,10.30
2022-11-04T19:44:58.217Z,12.70
2022-11-04T19:47:25.766Z,9.68
2022-11-04T19:49:53.676Z,11.98
2022-11-04T19:52:21.476Z,8.07
2022-11-04T19:54:48.922Z,13.65
2022-11-04T19:57:16.503Z,9.02
2022-11-04T19:59:44.077Z,12.10
2022-11-04T20:02:15.345Z,6.32
2022-11-04T20:04:43.504Z,12.43
2022-11-04T20:07:10.895Z,9.10
2022-11-04T20:09:39.431Z,12.57
2022-11-04T20:12:26.347Z,13.52
2022-11-04T20:14:57.547Z,13.95
2022-11-04T20:17:25.401Z,9.25
2022-11-04T20:19:53.195Z,11.00
2022-11-04T20:22:20.698Z,11.07
2022-11-04T20:24:48.237Z,8.35
2022-11-04T20:27:15.823Z,10.13
2022-11-04T20:29:43.688Z,8.10
2022-11-04T20:32:11.619Z,12.27
2022-11-04T20:34:40.032Z,11.52
2022-11-04T20:37:07.971Z,10.77
2022-11-04T20:39:35.920Z,6.53
2022-11-04T20:42:03.840Z,13.50
2022-11-04T20:44:31.672Z,7.60
2022-11-04T20:47:00.030Z,8.30
2022-11-04T20:49:27.545Z,6.40
2022-11-04T20:51:55.912Z,13.70
2022-11-04T20:54:23.812Z,8.90
2022-11-04T20:56:51.611Z,13.07
2022-11-04T20:59:19.462Z,14.20
2022-11-04T21:01:48.696Z,14.60
2022-11-04T21:04:20.401Z,11.32
2022-11-04T21:06:49.761Z,8.23
2022-11-04T21:09:18.552Z,10.85
2022-11-04T21:11:46.566Z,8.07
2022-11-04T21:14:16.437Z,12.50
2022-11-04T21:16:44.216Z,11.68
2022-11-04T21:19:12.185Z,10.00
2022-11-04T21:21:43.810Z,15.93
2022-11-04T21:24:12.986Z,10.65
2022-11-04T21:26:40.767Z,8.80
2022-11-04T21:29:11.276Z,6.05
2022-11-04T21:31:39.528Z,8.57
2022-11-04T21:34:07.009Z,4.97
2022-11-04T21:36:34.690Z,7.10
2022-11-04T21:39:02.760Z,4.47
2022-11-04T21:41:33.650Z,5.53
2022-11-04T21:44:03.057Z,4.63
2022-11-04T21:46:33.365Z,7.13
2022-11-04T21:49:01.583Z,8.55
2022-11-04T21:51:30.881Z,10.98
2022-11-04T21:53:59.342Z,6.95
2022-11-04T21:56:34.165Z,8.88
2022-11-04T21:59:02.618Z,7.63
2022-11-04T22:01:31.655Z,7.75
2022-11-04T22:04:01.219Z,8.40
2022-11-04T22:06:34.122Z,6.22
2022-11-04T22:09:06.051Z,7.47
2022-11-04T22:11:37.260Z,4.88
2022-11-04T22:14:06.169Z,7.32
2022-11-04T22:16:35.486Z,7.25
2022-11-04T22:19:05.175Z,7.63
2022-11-04T22:21:33.410Z,6.82
2022-11-04T22:24:02.026Z,6.97
2022-11-04T22:26:31.348Z,5.38
2022-11-04T22:29:00.021Z,6.38
2022-11-04T22:31:29.160Z,9.90
2022-11-04T22:33:57.634Z,7.85
2022-11-04T22:36:26.180Z,6.82
2022-11-04T22:38:54.936Z,9.68
2022-11-04T22:41:25.233Z,8.20
2022-11-04T22:43:53.055Z,9.52
2022-11-04T22:46:28.915Z,8.95
2022-11-04T22:48:56.776Z,6.13
2022-11-04T22:51:24.449Z,5.78
2022-11-04T22:53:57.865Z,6.70
2022-11-04T22:56:27.896Z,5.05
2022-11-04T22:58:55.892Z,7.03
2022-11-04T23:01:24.339Z,6.72
2022-11-04T23:03:52.411Z,6.05
2022-11-04T23:06:20.385Z,6.68
2022-11-04T23:08:48.117Z,6.15
2022-11-04T23:11:40.751Z,8.13
2022-11-04T23:14:31.860Z,11.57
2022-11-04T23:17:19.359Z,6.20
2022-11-04T23:19:47.468Z,6.95
2022-11-04T23:22:33.663Z,6.75
2022-11-04T23:25:09.924Z,8.70
2022-11-04T23:28:02.625Z,7.82
2022-11-04T23:30:36.853Z,8.95
2022-11-04T23:33:10.940Z,7.90
2022-11-04T23:36:02.681Z,6.47
2022-11-04T23:38:30.558Z,8.52
2022-11-04T23:41:20.622Z,7.68
2022-11-04T23:43:48.451Z,7.38
2022-11-04T23:46:48.359Z,6.32
2022-11-04T23:49:35.003Z,6.13
2022-11-04T23:52:21.819Z,9.20
2022-11-04T23:55:08.804Z,8.98
2022-11-04T23:57:54.789Z,7.75
